sensor_id;sensor_type;location;lat;lon;timestamp;temperature;humidity
11599;DHT22;5855;48.840;9.188;2023-07-29T00:02:11;17.50;99.90
11599;DHT22;5855;48.840;9.188;2023-07-29T00:04:38;17.50;99.90
11599;DHT22;5855;48.840;9.188;2023-07-29T00:07:05;17.50;99.90
11599;DHT22;5855;48.840;9.188;2023-07-29T00:09:32;17.50;99.90
11599;DHT22;5855;48.840;9.188;2023-07-29T00:12:00;17.50;99.90
11599;DHT22;5855;48.840;9.188;2023-07-29T00:14:27;17.60;99.90
11599;DHT22;5855;48.840;9.188;2023-07-29T00:16:54;17.60;99.90
11599;DHT22;5855;48.840;9.188;2023-07-29T00:19:21;17.60;99.90
11599;DHT22;5855;48.840;9.188;2023-07-29T00:21:49;17.50;99.90
11599;DHT22;5855;48.840;9.188;2023-07-29T00:24:15;17.50;99.90
11599;DHT22;5855;48.840;9.188;2023-07-29T00:26:42;17.50;99.90
11599;DHT22;5855;48.840;9.188;2023-07-29T00:29:10;17.60;99.90
11599;DHT22;5855;48.840;9.188;2023-07-29T00:31:37;17.60;99.90
11599;DHT22;5855;48.840;9.188;2023-07-29T00:34:04;17.60;99.90
11599;DHT22;5855;48.840;9.188;2023-07-29T00:36:31;17.60;99.90
11599;DHT22;5855;48.840;9.188;2023-07-29T00:38:57;17.70;99.90
11599;DHT22;5855;48.840;9.188;2023-07-29T00:41:25;17.70;99.90
11599;DHT22;5855;48.840;9.188;2023-07-29T00:43:52;17.80;99.90
11599;DHT22;5855;48.840;9.188;2023-07-29T00:46:20;17.90;99.90
11599;DHT22;5855;48.840;9.188;2023-07-29T00:48:48;18.00;99.90
11599;DHT22;5855;48.840;9.188;2023-07-29T00:51:15;17.90;99.90
11599;DHT22;5855;48.840;9.188;2023-07-29T00:53:42;17.90;99.90
11599;DHT22;5855;48.840;9.188;2023-07-29T00:56:11;17.80;99.90
11599;DHT22;5855;48.840;9.188;2023-07-29T00:58:38;17.70;99.90
11599;DHT22;5855;48.840;9.188;2023-07-29T01:01:05;17.70;99.90
11599;DHT22;5855;48.840;9.188;2023-07-29T01:03:33;17.60;99.90
11599;DHT22;5855;48.840;9.188;2023-07-29T01:06:09;17.50;99.90
11599;DHT22;5855;48.840;9.188;2023-07-29T01:08:46;17.50;99.90
11599;DHT22;5855;48.840;9.188;2023-07-29T01:11:23;17.40;99.90
11599;DHT22;5855;48.840;9.188;2023-07-29T01:13:59;17.40;99.90
11599;DHT22;5855;48.840;9.188;2023-07-29T01:16:31;17.40;99.90
11599;DHT22;5855;48.840;9.188;2023-07-29T01:19:05;17.50;99.90
11599;DHT22;5855;48.840;9.188;2023-07-29T01:21:33;17.50;99.90
11599;DHT22;5855;48.840;9.188;2023-07-29T01:24:03;17.40;99.90
11599;DHT22;5855;48.840;9.188;2023-07-29T01:26:30;17.40;99.90
11599;DHT22;5855;48.840;9.188;2023-07-29T01:28:57;17.50;99.90
11599;DHT22;5855;48.840;9.188;2023-07-29T01:31:30;17.50;99.90
11599;DHT22;5855;48.840;9.188;2023-07-29T01:34:04;17.50;99.90
11599;DHT22;5855;48.840;9.188;2023-07-29T01:36:33;17.60;99.90
11599;DHT22;5855;48.840;9.188;2023-07-29T01:39:06;17.60;99.90
11599;DHT22;5855;48.840;9.188;2023-07-29T01:41:34;17.70;99.90
11599;DHT22;5855;48.840;9.188;2023-07-29T01:44:02;17.80;99.90
11599;DHT22;5855;48.840;9.188;2023-07-29T01:46:29;17.70;99.90
11599;DHT22;5855;48.840;9.188;2023-07-29T01:48:58;17.70;99.90
11599;DHT22;5855;48.840;9.188;2023-07-29T01:51:25;17.60;99.90
11599;DHT22;5855;48.840;9.188;2023-07-29T01:53:52;17.60;99.90
11599;DHT22;5855;48.840;9.188;2023-07-29T01:56:20;17.60;99.90
11599;DHT22;5855;48.840;9.188;2023-07-29T01:58:47;17.60;99.90
11599;DHT22;5855;48.840;9.188;2023-07-29T02:01:13;17.60;99.90
11599;DHT22;5855;48.840;9.188;2023-07-29T02:03:40;17.60;99.90
11599;DHT22;5855;48.840;9.188;2023-07-29T02:06:07;17.60;99.90
11599;DHT22;5855;48.840;9.188;2023-07-29T02:08:35;17.60;99.90
11599;DHT22;5855;48.840;9.188;2023-07-29T02:11:02;17.60;99.90
11599;DHT22;5855;48.840;9.188;2023-07-29T02:13:30;17.60;99.90
11599;DHT22;5855;48.840;9.188;2023-07-29T02:15:57;17.60;99.90
11599;DHT22;5855;48.840;9.188;2023-07-29T02:18:23;17.60;99.90
11599;DHT22;5855;48.840;9.188;2023-07-29T02:20:50;17.50;99.90
11599;DHT22;5855;48.840;9.188;2023-07-29T02:23:17;17.50;99.90
11599;DHT22;5855;48.840;9.188;2023-07-29T02:25:44;17.50;99.90
11599;DHT22;5855;48.840;9.188;2023-07-29T02:28:11;17.50;99.90
11599;DHT22;5855;48.840;9.188;2023-07-29T02:30:41;17.50;99.90
11599;DHT22;5855;48.840;9.188;2023-07-29T02:33:10;17.50;99.90
11599;DHT22;5855;48.840;9.188;2023-07-29T02:35:36;17.50;99.90
11599;DHT22;5855;48.840;9.188;2023-07-29T02:38:03;17.40;99.90
11599;DHT22;5855;48.840;9.188;2023-07-29T02:40:30;17.40;99.90
11599;DHT22;5855;48.840;9.188;2023-07-29T02:42:57;17.50;99.90
11599;DHT22;5855;48.840;9.188;2023-07-29T02:45:24;17.50;99.90
11599;DHT22;5855;48.840;9.188;2023-07-29T02:47:52;17.40;99.90
11599;DHT22;5855;48.840;9.188;2023-07-29T02:50:19;17.40;99.90
11599;DHT22;5855;48.840;9.188;2023-07-29T02:52:46;17.30;99.90
11599;DHT22;5855;48.840;9.188;2023-07-29T02:55:12;17.30;99.90
11599;DHT22;5855;48.840;9.188;2023-07-29T02:57:39;17.40;99.90
11599;DHT22;5855;48.840;9.188;2023-07-29T03:00:07;17.40;99.90
11599;DHT22;5855;48.840;9.188;2023-07-29T03:02:34;17.30;99.90
11599;DHT22;5855;48.840;9.188;2023-07-29T03:05:03;17.30;99.90
11599;DHT22;5855;48.840;9.188;2023-07-29T03:07:30;17.30;99.90
11599;DHT22;5855;48.840;9.188;2023-07-29T03:09:57;17.30;99.90
11599;DHT22;5855;48.840;9.188;2023-07-29T03:12:24;17.40;99.90
11599;DHT22;5855;48.840;9.188;2023-07-29T03:14:50;17.40;99.90
11599;DHT22;5855;48.840;9.188;2023-07-29T03:17:17;17.30;99.90
11599;DHT22;5855;48.840;9.188;2023-07-29T03:19:44;17.30;99.90
11599;DHT22;5855;48.840;9.188;2023-07-29T03:22:12;17.30;99.90
11599;DHT22;5855;48.840;9.188;2023-07-29T03:24:39;17.20;99.90
11599;DHT22;5855;48.840;9.188;2023-07-29T03:27:07;17.20;99.90
11599;DHT22;5855;48.840;9.188;2023-07-29T03:29:35;17.30;99.90
11599;DHT22;5855;48.840;9.188;2023-07-29T03:32:02;17.30;99.90
11599;DHT22;5855;48.840;9.188;2023-07-29T03:34:29;17.30;99.90
11599;DHT22;5855;48.840;9.188;2023-07-29T03:36:55;17.30;99.90
11599;DHT22;5855;48.840;9.188;2023-07-29T03:39:24;17.30;99.90
11599;DHT22;5855;48.840;9.188;2023-07-29T03:41:50;17.40;99.90
11599;DHT22;5855;48.840;9.188;2023-07-29T03:44:17;17.40;99.90
11599;DHT22;5855;48.840;9.188;2023-07-29T03:46:44;17.40;99.90
11599;DHT22;5855;48.840;9.188;2023-07-29T03:49:11;17.50;99.90
11599;DHT22;5855;48.840;9.188;2023-07-29T03:51:38;17.50;99.90
11599;DHT22;5855;48.840;9.188;2023-07-29T03:54:05;17.50;99.90
11599;DHT22;5855;48.840;9.188;2023-07-29T03:56:33;17.60;99.90
11599;DHT22;5855;48.840;9.188;2023-07-29T03:59:02;17.60;99.90
11599;DHT22;5855;48.840;9.188;2023-07-29T04:01:29;17.60;99.90
11599;DHT22;5855;48.840;9.188;2023-07-29T04:03:56;17.70;99.90
11599;DHT22;5855;48.840;9.188;2023-07-29T04:06:23;17.70;99.90
11599;DHT22;5855;48.840;9.188;2023-07-29T04:08:50;17.70;99.90
11599;DHT22;5855;48.840;9.188;2023-07-29T04:11:17;17.70;99.90
11599;DHT22;5855;48.840;9.188;2023-07-29T04:13:45;17.70;99.90
11599;DHT22;5855;48.840;9.188;2023-07-29T04:16:12;17.70;99.90
11599;DHT22;5855;48.840;9.188;2023-07-29T04:18:38;17.70;99.90
11599;DHT22;5855;48.840;9.188;2023-07-29T04:21:05;17.80;99.90
11599;DHT22;5855;48.840;9.188;2023-07-29T04:23:32;17.80;99.90
11599;DHT22;5855;48.840;9.188;2023-07-29T04:25:59;17.80;99.90
11599;DHT22;5855;48.840;9.188;2023-07-29T04:28:25;17.80;99.90
11599;DHT22;5855;48.840;9.188;2023-07-29T04:30:54;17.80;99.90
11599;DHT22;5855;48.840;9.188;2023-07-29T04:33:21;17.80;99.90
11599;DHT22;5855;48.840;9.188;2023-07-29T04:35:48;17.80;99.90
11599;DHT22;5855;48.840;9.188;2023-07-29T04:38:14;17.80;99.90
11599;DHT22;5855;48.840;9.188;2023-07-29T04:40:41;17.70;99.90
11599;DHT22;5855;48.840;9.188;2023-07-29T04:43:08;17.70;99.90
11599;DHT22;5855;48.840;9.188;2023-07-29T04:45:35;17.80;99.90
11599;DHT22;5855;48.840;9.188;2023-07-29T04:48:03;17.70;99.90
11599;DHT22;5855;48.840;9.188;2023-07-29T04:50:30;17.90;99.90
11599;DHT22;5855;48.840;9.188;2023-07-29T04:52:57;17.90;99.90
11599;DHT22;5855;48.840;9.188;2023-07-29T04:55:24;17.90;99.90
11599;DHT22;5855;48.840;9.188;2023-07-29T04:57:50;18.00;99.90
11599;DHT22;5855;48.840;9.188;2023-07-29T05:00:17;18.00;99.90
11599;DHT22;5855;48.840;9.188;2023-07-29T05:02:44;18.00;99.90
11599;DHT22;5855;48.840;9.188;2023-07-29T05:05:12;17.90;99.90
11599;DHT22;5855;48.840;9.188;2023-07-29T05:07:39;17.80;99.90
11599;DHT22;5855;48.840;9.188;2023-07-29T05:10:07;17.80;99.90
11599;DHT22;5855;48.840;9.188;2023-07-29T05:12:34;17.70;99.90
11599;DHT22;5855;48.840;9.188;2023-07-29T05:15:01;17.80;99.90
11599;DHT22;5855;48.840;9.188;2023-07-29T05:17:28;17.90;99.90
11599;DHT22;5855;48.840;9.188;2023-07-29T05:19:55;17.90;99.90
11599;DHT22;5855;48.840;9.188;2023-07-29T05:22:23;18.00;99.90
11599;DHT22;5855;48.840;9.188;2023-07-29T05:24:50;18.00;99.90
11599;DHT22;5855;48.840;9.188;2023-07-29T05:27:17;18.00;99.90
11599;DHT22;5855;48.840;9.188;2023-07-29T05:29:44;18.10;99.90
11599;DHT22;5855;48.840;9.188;2023-07-29T05:32:11;18.20;99.90
11599;DHT22;5855;48.840;9.188;2023-07-29T05:34:37;18.30;99.90
11599;DHT22;5855;48.840;9.188;2023-07-29T05:37:05;18.40;99.90
11599;DHT22;5855;48.840;9.188;2023-07-29T05:39:33;18.20;99.90
11599;DHT22;5855;48.840;9.188;2023-07-29T05:42:00;18.30;99.90
11599;DHT22;5855;48.840;9.188;2023-07-29T05:44:28;18.30;99.90
11599;DHT22;5855;48.840;9.188;2023-07-29T05:46:55;18.50;99.90
11599;DHT22;5855;48.840;9.188;2023-07-29T05:49:22;18.50;99.90
11599;DHT22;5855;48.840;9.188;2023-07-29T05:51:49;18.60;99.90
11599;DHT22;5855;48.840;9.188;2023-07-29T05:54:18;18.80;99.90
11599;DHT22;5855;48.840;9.188;2023-07-29T05:56:46;18.90;99.90
11599;DHT22;5855;48.840;9.188;2023-07-29T05:59:13;19.00;99.90
11599;DHT22;5855;48.840;9.188;2023-07-29T06:01:40;19.10;99.90
11599;DHT22;5855;48.840;9.188;2023-07-29T06:04:07;19.20;99.90
11599;DHT22;5855;48.840;9.188;2023-07-29T06:06:34;19.20;99.90
11599;DHT22;5855;48.840;9.188;2023-07-29T06:09:00;19.30;99.90
11599;DHT22;5855;48.840;9.188;2023-07-29T06:11:27;19.40;99.90
11599;DHT22;5855;48.840;9.188;2023-07-29T06:13:55;19.50;99.90
11599;DHT22;5855;48.840;9.188;2023-07-29T06:16:22;19.50;99.90
11599;DHT22;5855;48.840;9.188;2023-07-29T06:18:49;19.60;99.90
11599;DHT22;5855;48.840;9.188;2023-07-29T06:21:18;19.80;99.90
11599;DHT22;5855;48.840;9.188;2023-07-29T06:23:45;19.90;99.90
11599;DHT22;5855;48.840;9.188;2023-07-29T06:26:12;20.00;99.90
11599;DHT22;5855;48.840;9.188;2023-07-29T06:28:39;20.20;99.90
11599;DHT22;5855;48.840;9.188;2023-07-29T06:31:07;20.20;99.90
11599;DHT22;5855;48.840;9.188;2023-07-29T06:33:34;20.30;99.90
11599;DHT22;5855;48.840;9.188;2023-07-29T06:36:01;20.20;99.90
11599;DHT22;5855;48.840;9.188;2023-07-29T06:38:28;20.20;99.90
11599;DHT22;5855;48.840;9.188;2023-07-29T06:40:54;20.20;99.90
11599;DHT22;5855;48.840;9.188;2023-07-29T06:43:21;20.10;99.90
11599;DHT22;5855;48.840;9.188;2023-07-29T06:45:48;20.10;99.90
11599;DHT22;5855;48.840;9.188;2023-07-29T06:48:17;20.20;99.90
11599;DHT22;5855;48.840;9.188;2023-07-29T06:50:44;20.20;99.90
11599;DHT22;5855;48.840;9.188;2023-07-29T06:53:11;20.10;99.90
11599;DHT22;5855;48.840;9.188;2023-07-29T06:55:38;20.00;99.90
11599;DHT22;5855;48.840;9.188;2023-07-29T06:58:05;19.90;99.90
11599;DHT22;5855;48.840;9.188;2023-07-29T07:00:31;19.90;99.90
11599;DHT22;5855;48.840;9.188;2023-07-29T07:02:58;19.80;99.90
11599;DHT22;5855;48.840;9.188;2023-07-29T07:05:26;19.80;99.90
11599;DHT22;5855;48.840;9.188;2023-07-29T07:07:53;19.70;99.90
11599;DHT22;5855;48.840;9.188;2023-07-29T07:10:20;19.70;99.90
11599;DHT22;5855;48.840;9.188;2023-07-29T07:12:47;19.70;99.90
11599;DHT22;5855;48.840;9.188;2023-07-29T07:15:14;19.60;99.90
11599;DHT22;5855;48.840;9.188;2023-07-29T07:17:41;19.50;99.90
11599;DHT22;5855;48.840;9.188;2023-07-29T07:20:08;19.50;99.90
11599;DHT22;5855;48.840;9.188;2023-07-29T07:22:36;19.50;99.90
11599;DHT22;5855;48.840;9.188;2023-07-29T07:25:05;19.50;99.90
11599;DHT22;5855;48.840;9.188;2023-07-29T07:27:32;19.50;99.90
11599;DHT22;5855;48.840;9.188;2023-07-29T07:29:58;19.40;99.90
11599;DHT22;5855;48.840;9.188;2023-07-29T07:32:26;19.40;99.90
11599;DHT22;5855;48.840;9.188;2023-07-29T07:34:52;19.60;99.90
11599;DHT22;5855;48.840;9.188;2023-07-29T07:37:19;19.80;99.90
11599;DHT22;5855;48.840;9.188;2023-07-29T07:39:48;19.80;99.90
11599;DHT22;5855;48.840;9.188;2023-07-29T07:42:14;20.00;99.90
11599;DHT22;5855;48.840;9.188;2023-07-29T07:44:41;20.20;99.90
11599;DHT22;5855;48.840;9.188;2023-07-29T07:47:08;20.30;99.90
11599;DHT22;5855;48.840;9.188;2023-07-29T07:49:35;20.30;99.90
11599;DHT22;5855;48.840;9.188;2023-07-29T07:52:01;20.30;99.90
11599;DHT22;5855;48.840;9.188;2023-07-29T07:54:28;20.40;99.90
11599;DHT22;5855;48.840;9.188;2023-07-29T07:56:56;20.50;99.90
11599;DHT22;5855;48.840;9.188;2023-07-29T07:59:23;20.60;99.90
11599;DHT22;5855;48.840;9.188;2023-07-29T08:01:50;20.60;99.90
11599;DHT22;5855;48.840;9.188;2023-07-29T08:04:17;20.60;99.90
11599;DHT22;5855;48.840;9.188;2023-07-29T08:06:44;20.70;99.90
11599;DHT22;5855;48.840;9.188;2023-07-29T08:09:11;20.80;99.90
11599;DHT22;5855;48.840;9.188;2023-07-29T08:11:38;20.90;99.90
11599;DHT22;5855;48.840;9.188;2023-07-29T08:14:06;21.10;99.90
11599;DHT22;5855;48.840;9.188;2023-07-29T08:16:33;21.20;99.90
11599;DHT22;5855;48.840;9.188;2023-07-29T08:18:59;21.20;99.90
11599;DHT22;5855;48.840;9.188;2023-07-29T08:21:26;21.30;99.90
11599;DHT22;5855;48.840;9.188;2023-07-29T08:23:53;21.30;99.90
11599;DHT22;5855;48.840;9.188;2023-07-29T08:26:20;21.20;99.90
11599;DHT22;5855;48.840;9.188;2023-07-29T08:28:48;21.30;99.90
11599;DHT22;5855;48.840;9.188;2023-07-29T08:31:16;21.30;99.90
11599;DHT22;5855;48.840;9.188;2023-07-29T08:33:43;21.40;99.90
11599;DHT22;5855;48.840;9.188;2023-07-29T08:36:10;21.30;99.90
11599;DHT22;5855;48.840;9.188;2023-07-29T08:38:37;21.50;99.90
11599;DHT22;5855;48.840;9.188;2023-07-29T08:41:12;21.60;99.90
11599;DHT22;5855;48.840;9.188;2023-07-29T08:43:45;21.70;99.90
11599;DHT22;5855;48.840;9.188;2023-07-29T08:46:16;21.70;99.90
11599;DHT22;5855;48.840;9.188;2023-07-29T08:48:43;21.80;99.90
11599;DHT22;5855;48.840;9.188;2023-07-29T08:51:11;21.80;99.90
11599;DHT22;5855;48.840;9.188;2023-07-29T08:53:38;22.10;99.90
11599;DHT22;5855;48.840;9.188;2023-07-29T08:56:07;22.40;99.90
11599;DHT22;5855;48.840;9.188;2023-07-29T08:58:35;22.70;99.90
11599;DHT22;5855;48.840;9.188;2023-07-29T09:01:02;22.90;99.90
11599;DHT22;5855;48.840;9.188;2023-07-29T09:03:30;23.10;99.90
11599;DHT22;5855;48.840;9.188;2023-07-29T09:05:58;23.60;99.90
11599;DHT22;5855;48.840;9.188;2023-07-29T09:08:26;23.60;99.90
11599;DHT22;5855;48.840;9.188;2023-07-29T09:10:53;23.70;99.90
11599;DHT22;5855;48.840;9.188;2023-07-29T09:13:20;23.80;99.90
11599;DHT22;5855;48.840;9.188;2023-07-29T09:15:48;23.80;99.90
11599;DHT22;5855;48.840;9.188;2023-07-29T09:18:16;23.70;99.90
11599;DHT22;5855;48.840;9.188;2023-07-29T09:20:46;23.80;99.90
11599;DHT22;5855;48.840;9.188;2023-07-29T09:23:13;23.80;99.90
11599;DHT22;5855;48.840;9.188;2023-07-29T09:25:40;23.90;99.90
11599;DHT22;5855;48.840;9.188;2023-07-29T09:28:11;24.10;99.90
11599;DHT22;5855;48.840;9.188;2023-07-29T09:30:38;24.40;99.90
11599;DHT22;5855;48.840;9.188;2023-07-29T09:33:05;24.70;99.90
11599;DHT22;5855;48.840;9.188;2023-07-29T09:35:34;25.10;99.90
11599;DHT22;5855;48.840;9.188;2023-07-29T09:38:04;25.40;99.90
11599;DHT22;5855;48.840;9.188;2023-07-29T09:40:35;25.60;99.90
11599;DHT22;5855;48.840;9.188;2023-07-29T09:43:03;25.50;99.90
11599;DHT22;5855;48.840;9.188;2023-07-29T09:45:33;25.50;99.90
11599;DHT22;5855;48.840;9.188;2023-07-29T09:48:03;25.30;99.90
11599;DHT22;5855;48.840;9.188;2023-07-29T09:50:35;24.80;99.90
11599;DHT22;5855;48.840;9.188;2023-07-29T09:53:03;24.60;99.90
11599;DHT22;5855;48.840;9.188;2023-07-29T09:55:33;24.40;99.90
11599;DHT22;5855;48.840;9.188;2023-07-29T09:58:00;24.50;99.90
11599;DHT22;5855;48.840;9.188;2023-07-29T10:00:30;24.70;99.90
11599;DHT22;5855;48.840;9.188;2023-07-29T10:02:57;24.90;99.90
11599;DHT22;5855;48.840;9.188;2023-07-29T10:05:27;24.90;99.90
11599;DHT22;5855;48.840;9.188;2023-07-29T10:07:55;24.90;99.90
11599;DHT22;5855;48.840;9.188;2023-07-29T10:10:24;25.10;99.90
11599;DHT22;5855;48.840;9.188;2023-07-29T10:12:51;24.90;99.90
11599;DHT22;5855;48.840;9.188;2023-07-29T10:15:18;25.00;99.90
11599;DHT22;5855;48.840;9.188;2023-07-29T10:17:46;25.00;99.90
11599;DHT22;5855;48.840;9.188;2023-07-29T10:20:13;24.50;99.90
11599;DHT22;5855;48.840;9.188;2023-07-29T10:22:41;24.20;99.90
11599;DHT22;5855;48.840;9.188;2023-07-29T10:25:15;24.20;99.90
11599;DHT22;5855;48.840;9.188;2023-07-29T10:27:47;23.90;99.90
11599;DHT22;5855;48.840;9.188;2023-07-29T10:30:15;23.60;99.90
11599;DHT22;5855;48.840;9.188;2023-07-29T10:32:42;23.40;99.90
11599;DHT22;5855;48.840;9.188;2023-07-29T10:35:10;23.40;99.90
11599;DHT22;5855;48.840;9.188;2023-07-29T10:37:38;23.40;99.90
11599;DHT22;5855;48.840;9.188;2023-07-29T10:40:07;23.50;99.90
11599;DHT22;5855;48.840;9.188;2023-07-29T10:42:34;23.50;99.90
11599;DHT22;5855;48.840;9.188;2023-07-29T10:45:17;23.70;99.90
11599;DHT22;5855;48.840;9.188;2023-07-29T10:47:45;24.20;99.90
11599;DHT22;5855;48.840;9.188;2023-07-29T10:50:18;24.50;99.90
11599;DHT22;5855;48.840;9.188;2023-07-29T10:52:49;24.80;99.90
11599;DHT22;5855;48.840;9.188;2023-07-29T10:55:26;25.00;99.90
11599;DHT22;5855;48.840;9.188;2023-07-29T10:58:03;25.10;99.90
11599;DHT22;5855;48.840;9.188;2023-07-29T11:00:32;25.70;99.90
11599;DHT22;5855;48.840;9.188;2023-07-29T11:03:00;25.90;99.90
11599;DHT22;5855;48.840;9.188;2023-07-29T11:05:42;25.90;99.90
11599;DHT22;5855;48.840;9.188;2023-07-29T11:08:17;26.20;99.90
11599;DHT22;5855;48.840;9.188;2023-07-29T11:10:44;26.00;99.90
11599;DHT22;5855;48.840;9.188;2023-07-29T11:13:11;26.40;99.90
11599;DHT22;5855;48.840;9.188;2023-07-29T11:15:40;27.00;99.90
11599;DHT22;5855;48.840;9.188;2023-07-29T11:18:09;27.90;99.90
11599;DHT22;5855;48.840;9.188;2023-07-29T11:20:37;28.00;99.90
11599;DHT22;5855;48.840;9.188;2023-07-29T11:23:04;28.30;99.90
11599;DHT22;5855;48.840;9.188;2023-07-29T11:25:31;28.30;99.90
11599;DHT22;5855;48.840;9.188;2023-07-29T11:28:00;27.80;99.90
11599;DHT22;5855;48.840;9.188;2023-07-29T11:30:26;27.50;99.90
11599;DHT22;5855;48.840;9.188;2023-07-29T11:32:57;27.20;99.90
11599;DHT22;5855;48.840;9.188;2023-07-29T11:35:25;26.50;99.90
11599;DHT22;5855;48.840;9.188;2023-07-29T11:37:53;26.10;99.90
11599;DHT22;5855;48.840;9.188;2023-07-29T11:40:22;26.10;99.90
11599;DHT22;5855;48.840;9.188;2023-07-29T11:42:52;26.40;99.90
11599;DHT22;5855;48.840;9.188;2023-07-29T11:45:20;26.30;99.90
11599;DHT22;5855;48.840;9.188;2023-07-29T11:47:47;26.40;99.90
11599;DHT22;5855;48.840;9.188;2023-07-29T11:50:15;26.40;99.90
11599;DHT22;5855;48.840;9.188;2023-07-29T11:52:44;26.50;99.90
11599;DHT22;5855;48.840;9.188;2023-07-29T11:55:12;26.60;99.90
11599;DHT22;5855;48.840;9.188;2023-07-29T11:57:39;26.70;99.90
11599;DHT22;5855;48.840;9.188;2023-07-29T12:00:09;27.00;99.90
11599;DHT22;5855;48.840;9.188;2023-07-29T12:02:38;27.00;99.90
11599;DHT22;5855;48.840;9.188;2023-07-29T12:05:06;27.70;99.90
11599;DHT22;5855;48.840;9.188;2023-07-29T12:07:37;28.50;99.90
11599;DHT22;5855;48.840;9.188;2023-07-29T12:10:06;28.70;99.90
11599;DHT22;5855;48.840;9.188;2023-07-29T12:12:33;28.90;99.90
11599;DHT22;5855;48.840;9.188;2023-07-29T12:15:00;29.00;99.90
11599;DHT22;5855;48.840;9.188;2023-07-29T12:17:27;29.40;99.90
11599;DHT22;5855;48.840;9.188;2023-07-29T12:19:54;29.60;99.90
11599;DHT22;5855;48.840;9.188;2023-07-29T12:22:21;30.00;99.90
11599;DHT22;5855;48.840;9.188;2023-07-29T12:24:51;30.60;99.90
11599;DHT22;5855;48.840;9.188;2023-07-29T12:27:21;30.60;99.90
11599;DHT22;5855;48.840;9.188;2023-07-29T12:29:51;30.80;99.90
11599;DHT22;5855;48.840;9.188;2023-07-29T12:32:18;31.30;99.80
11599;DHT22;5855;48.840;9.188;2023-07-29T12:34:45;31.10;98.60
11599;DHT22;5855;48.840;9.188;2023-07-29T12:37:12;30.80;94.80
11599;DHT22;5855;48.840;9.188;2023-07-29T12:39:40;30.00;95.20
11599;DHT22;5855;48.840;9.188;2023-07-29T12:42:09;29.70;96.10
11599;DHT22;5855;48.840;9.188;2023-07-29T12:44:37;30.00;95.50
11599;DHT22;5855;48.840;9.188;2023-07-29T12:47:05;30.20;94.70
11599;DHT22;5855;48.840;9.188;2023-07-29T12:49:34;30.70;92.90
11599;DHT22;5855;48.840;9.188;2023-07-29T12:52:01;31.60;92.40
11599;DHT22;5855;48.840;9.188;2023-07-29T12:54:28;31.80;90.20
11599;DHT22;5855;48.840;9.188;2023-07-29T12:56:54;33.00;90.40
11599;DHT22;5855;48.840;9.188;2023-07-29T12:59:23;33.80;85.30
11599;DHT22;5855;48.840;9.188;2023-07-29T13:01:49;33.70;81.60
11599;DHT22;5855;48.840;9.188;2023-07-29T13:04:16;33.20;81.70
11599;DHT22;5855;48.840;9.188;2023-07-29T13:06:43;33.30;82.30
11599;DHT22;5855;48.840;9.188;2023-07-29T13:09:10;33.20;79.90
11599;DHT22;5855;48.840;9.188;2023-07-29T13:11:37;32.20;84.30
11599;DHT22;5855;48.840;9.188;2023-07-29T13:14:03;32.70;84.40
11599;DHT22;5855;48.840;9.188;2023-07-29T13:16:31;32.70;82.20
11599;DHT22;5855;48.840;9.188;2023-07-29T13:18:58;33.90;82.40
11599;DHT22;5855;48.840;9.188;2023-07-29T13:21:25;33.70;73.40
11599;DHT22;5855;48.840;9.188;2023-07-29T13:23:52;33.80;77.70
11599;DHT22;5855;48.840;9.188;2023-07-29T13:26:19;34.10;77.30
11599;DHT22;5855;48.840;9.188;2023-07-29T13:28:46;35.00;74.70
11599;DHT22;5855;48.840;9.188;2023-07-29T13:31:12;35.20;74.10
11599;DHT22;5855;48.840;9.188;2023-07-29T13:33:40;35.20;71.40
11599;DHT22;5855;48.840;9.188;2023-07-29T13:36:07;34.60;71.20
11599;DHT22;5855;48.840;9.188;2023-07-29T13:38:34;33.00;72.80
11599;DHT22;5855;48.840;9.188;2023-07-29T13:41:01;31.30;77.10
11599;DHT22;5855;48.840;9.188;2023-07-29T13:43:28;30.30;81.30
11599;DHT22;5855;48.840;9.188;2023-07-29T13:45:55;30.00;84.30
11599;DHT22;5855;48.840;9.188;2023-07-29T13:48:21;29.60;84.60
11599;DHT22;5855;48.840;9.188;2023-07-29T13:50:50;29.20;87.20
11599;DHT22;5855;48.840;9.188;2023-07-29T13:53:17;29.00;88.30
11599;DHT22;5855;48.840;9.188;2023-07-29T13:55:44;28.70;90.10
11599;DHT22;5855;48.840;9.188;2023-07-29T13:58:11;28.50;91.10
11599;DHT22;5855;48.840;9.188;2023-07-29T14:00:38;28.30;91.50
11599;DHT22;5855;48.840;9.188;2023-07-29T14:03:05;28.20;91.60
11599;DHT22;5855;48.840;9.188;2023-07-29T14:05:31;28.10;91.50
11599;DHT22;5855;48.840;9.188;2023-07-29T14:08:00;28.10;92.50
11599;DHT22;5855;48.840;9.188;2023-07-29T14:10:26;28.10;92.20
11599;DHT22;5855;48.840;9.188;2023-07-29T14:12:53;28.20;92.40
11599;DHT22;5855;48.840;9.188;2023-07-29T14:15:21;29.60;92.00
11599;DHT22;5855;48.840;9.188;2023-07-29T14:17:47;30.80;90.20
11599;DHT22;5855;48.840;9.188;2023-07-29T14:20:14;31.40;86.80
11599;DHT22;5855;48.840;9.188;2023-07-29T14:22:41;31.90;84.40
11599;DHT22;5855;48.840;9.188;2023-07-29T14:25:10;32.80;82.80
11599;DHT22;5855;48.840;9.188;2023-07-29T14:27:37;32.60;82.20
11599;DHT22;5855;48.840;9.188;2023-07-29T14:30:05;33.20;79.60
11599;DHT22;5855;48.840;9.188;2023-07-29T14:32:32;32.40;80.70
11599;DHT22;5855;48.840;9.188;2023-07-29T14:34:59;31.60;80.50
11599;DHT22;5855;48.840;9.188;2023-07-29T14:37:29;30.50;84.70
11599;DHT22;5855;48.840;9.188;2023-07-29T14:39:56;29.50;90.10
11599;DHT22;5855;48.840;9.188;2023-07-29T14:42:24;29.20;90.90
11599;DHT22;5855;48.840;9.188;2023-07-29T14:44:51;28.60;92.30
11599;DHT22;5855;48.840;9.188;2023-07-29T14:47:17;28.60;93.30
11599;DHT22;5855;48.840;9.188;2023-07-29T14:49:45;28.90;92.40
11599;DHT22;5855;48.840;9.188;2023-07-29T14:52:11;28.60;93.10
11599;DHT22;5855;48.840;9.188;2023-07-29T14:54:38;28.40;93.80
11599;DHT22;5855;48.840;9.188;2023-07-29T14:57:06;28.40;95.10
11599;DHT22;5855;48.840;9.188;2023-07-29T14:59:34;29.00;94.00
11599;DHT22;5855;48.840;9.188;2023-07-29T15:02:01;30.40;92.50
11599;DHT22;5855;48.840;9.188;2023-07-29T15:04:28;31.00;91.80
11599;DHT22;5855;48.840;9.188;2023-07-29T15:06:55;31.50;90.70
11599;DHT22;5855;48.840;9.188;2023-07-29T15:09:23;31.60;89.50
11599;DHT22;5855;48.840;9.188;2023-07-29T15:11:50;31.10;90.40
11599;DHT22;5855;48.840;9.188;2023-07-29T15:14:16;30.80;90.70
11599;DHT22;5855;48.840;9.188;2023-07-29T15:16:45;31.50;90.60
11599;DHT22;5855;48.840;9.188;2023-07-29T15:19:11;32.40;87.40
11599;DHT22;5855;48.840;9.188;2023-07-29T15:21:39;33.10;83.60
11599;DHT22;5855;48.840;9.188;2023-07-29T15:24:06;33.00;82.00
11599;DHT22;5855;48.840;9.188;2023-07-29T15:26:33;32.60;83.80
11599;DHT22;5855;48.840;9.188;2023-07-29T15:29:00;31.90;84.70
11599;DHT22;5855;48.840;9.188;2023-07-29T15:31:27;31.10;86.30
11599;DHT22;5855;48.840;9.188;2023-07-29T15:33:56;31.10;88.70
11599;DHT22;5855;48.840;9.188;2023-07-29T15:36:22;31.70;87.40
11599;DHT22;5855;48.840;9.188;2023-07-29T15:38:49;31.10;87.10
11599;DHT22;5855;48.840;9.188;2023-07-29T15:41:16;31.10;87.80
11599;DHT22;5855;48.840;9.188;2023-07-29T15:43:43;30.70;88.60
11599;DHT22;5855;48.840;9.188;2023-07-29T15:46:10;30.00;91.00
11599;DHT22;5855;48.840;9.188;2023-07-29T15:48:36;29.60;92.50